Time;durP1;ratioP1;P1;durP2;ratioP2;P2;SDS_P1;SDS_P2;PMS_P1;PMS_P2;Temp;Humidity;BMP_temperature;BMP_pressure;BME280_temperature;BME280_humidity;BME280_pressure;Samples;Min_cycle;Max_cycle;Signal;HPM_P1;HPM_P2
2022/11/04 00:01:43;;;;;;;24.38;13.30;;;;;;;11.45;65.83;99444.69;4971164;28;101431;-82
2022/11/04 00:04:10;;;;;;;26.85;13.70;;;;;;;11.46;65.41;99444.63;4971960;28;97230;-82
2022/11/04 00:06:36;;;;;;;24.45;13.77;;;;;;;11.41;65.31;99440.53;4972847;28;96731;-82
2022/11/04 00:09:03;;;;;;;29.58;15.93;;;;;;;11.42;65.31;99435.19;4955108;28;101136;-82
2022/11/04 00:14:14;;;;;;;28.80;16.23;;;;;;;11.36;65.34;99414.47;4989515;28;98026;-82
2022/11/04 00:19:24;;;;;;;30.58;16.88;;;;;;;11.41;65.71;99428.25;4956865;28;101307;-82
2022/11/04 00:30:09;;;;;;;27.42;15.55;;;;;;;11.16;66.46;99414.66;4949007;28;97978;-82
2022/11/04 00:35:20;;;;;;;25.02;13.98;;;;;;;11.05;67.48;99402.06;4974626;28;96978;-82
2022/11/04 00:37:46;;;;;;;27.77;14.77;;;;;;;10.99;68.19;99391.84;4938759;28;97115;-81
2022/11/04 00:40:14;;;;;;;21.05;13.15;;;;;;;10.93;68.25;99377.25;4940118;28;101217;-82
2022/11/04 00:42:42;;;;;;;21.27;12.57;;;;;;;10.99;68.44;99395.31;4953242;28;101078;-81
2022/11/04 00:45:08;;;;;;;21.88;13.25;;;;;;;10.98;68.58;99385.75;4955117;28;96740;-82
2022/11/04 00:47:34;;;;;;;22.35;11.80;;;;;;;11.01;68.84;99379.50;4970796;28;97720;-82
2022/11/04 00:49:59;;;;;;;25.98;14.45;;;;;;;11.12;68.53;99371.09;4971363;28;97538;-82
2022/11/04 00:52:25;;;;;;;21.63;12.02;;;;;;;11.23;68.28;99369.63;4978664;28;98073;-82
2022/11/04 00:54:50;;;;;;;23.10;13.02;;;;;;;11.19;68.56;99370.69;4970927;28;97656;-82
2022/11/04 00:57:16;;;;;;;20.00;12.50;;;;;;;11.15;68.71;99356.03;4971769;28;97028;-82
2022/11/04 00:59:41;;;;;;;27.08;13.00;;;;;;;11.19;68.84;99359.34;4950911;28;101397;-82
2022/11/04 01:02:08;;;;;;;23.55;12.35;;;;;;;11.20;68.29;99355.75;4987780;28;97891;-82
2022/11/04 01:04:34;;;;;;;20.20;12.48;;;;;;;11.20;68.96;99356.63;4949862;28;97158;-81
2022/11/04 01:07:00;;;;;;;21.02;12.63;;;;;;;11.10;69.04;99348.38;4964627;28;97511;-82
2022/11/04 01:09:26;;;;;;;17.20;11.63;;;;;;;11.07;68.94;99342.44;4970279;28;97907;-82
2022/11/04 01:11:52;;;;;;;20.88;12.20;;;;;;;11.18;68.80;99352.38;4971545;28;100704;-82
2022/11/04 01:14:18;;;;;;;19.02;12.63;;;;;;;11.16;69.03;99341.94;4935156;28;96873;-82
2022/11/04 01:16:44;;;;;;;20.27;12.10;;;;;;;11.15;68.72;99335.00;4934278;28;97037;-83
2022/11/04 01:19:09;;;;;;;21.58;12.10;;;;;;;11.20;68.77;99332.13;4968004;28;98471;-82
2022/11/04 01:21:35;;;;;;;25.55;13.27;;;;;;;11.21;68.81;99333.84;4936853;28;101168;-82
2022/11/04 01:24:01;;;;;;;19.38;11.90;;;;;;;11.00;69.16;99299.03;4958040;28;97244;-82
2022/11/04 01:26:27;;;;;;;21.27;13.38;;;;;;;11.24;68.90;99334.53;4950948;28;97164;-82
2022/11/04 01:28:54;;;;;;;21.35;12.63;;;;;;;11.07;69.34;99340.66;4968918;28;101099;-83
2022/11/04 01:31:25;;;;;;;22.75;12.50;;;;;;;10.89;70.08;99323.22;4967601;28;97838;-82
2022/11/04 01:33:52;;;;;;;20.13;11.82;;;;;;;10.84;69.90;99312.09;4935269;28;97137;-82
2022/11/04 01:36:18;;;;;;;20.00;12.02;;;;;;;10.83;69.63;99313.03;4971176;28;97234;-82
2022/11/04 01:38:44;;;;;;;18.70;12.05;;;;;;;10.93;69.84;99322.13;4977263;28;101638;-82
2022/11/04 01:41:22;;;;;;;22.77;12.70;;;;;;;10.97;70.07;99317.59;4954522;28;101617;-82
2022/11/04 01:43:49;;;;;;;22.42;11.95;;;;;;;11.03;69.72;99312.84;4971000;28;97092;-82
2022/11/04 01:46:28;;;;;;;17.23;11.93;;;;;;;10.98;69.87;99308.78;4973682;28;96979;-82
2022/11/04 01:48:58;;;;;;;17.77;11.27;;;;;;;10.98;69.65;99299.09;4972717;28;100883;-82
2022/11/04 01:51:24;;;;;;;22.88;12.15;;;;;;;10.87;69.57;99262.91;4956863;28;97856;-82
2022/11/04 01:53:51;;;;;;;20.33;12.55;;;;;;;11.04;69.26;99284.81;4972099;28;97215;-82
2022/11/04 01:56:19;;;;;;;19.08;12.30;;;;;;;10.99;69.74;99289.44;4971534;28;97369;-82
2022/11/04 01:58:51;;;;;;;19.45;11.30;;;;;;;10.92;69.83;99288.09;4953868;28;101558;-82
2022/11/04 02:01:17;;;;;;;18.40;11.68;;;;;;;10.96;70.48;99285.19;4937526;28;101834;-83
2022/11/04 02:03:50;;;;;;;16.55;11.10;;;;;;;10.97;70.23;99286.91;4978411;28;98237;-82
2022/11/04 02:06:18;;;;;;;17.52;10.88;;;;;;;10.99;70.11;99284.19;4990930;28;96806;-82
2022/11/04 02:08:44;;;;;;;17.38;10.32;;;;;;;10.98;70.21;99279.88;4938015;28;102114;-82
2022/11/04 02:11:10;;;;;;;17.58;10.77;;;;;;;10.91;70.46;99255.72;4957919;28;101706;-82
2022/11/04 02:13:36;;;;;;;22.15;11.73;;;;;;;10.99;70.06;99274.53;4972299;28;96946;-82
2022/11/04 02:16:22;;;;;;;15.27;10.63;;;;;;;10.96;70.54;99281.72;4958141;28;96878;-82
2022/11/04 02:19:03;;;;;;;17.92;11.23;;;;;;;10.97;70.38;99281.66;4955491;28;101806;-82
2022/11/04 02:21:47;;;;;;;18.88;10.90;;;;;;;10.96;70.64;99279.94;4970203;28;101281;-81
2022/11/04 02:24:37;;;;;;;18.92;11.25;;;;;;;11.01;70.11;99272.69;4953351;28;97380;-82
2022/11/04 02:27:07;;;;;;;19.08;11.70;;;;;;;11.20;69.96;99267.31;4973827;28;97302;-82
2022/11/04 02:29:33;;;;;;;19.52;11.30;;;;;;;11.13;70.31;99284.31;4955963;28;101535;-82
2022/11/04 02:32:11;;;;;;;16.83;10.80;;;;;;;10.97;70.28;99244.91;4955355;28;101775;-82
2022/11/04 02:34:50;;;;;;;17.98;10.25;;;;;;;11.05;70.50;99269.00;4955921;28;96688;-82
2022/11/04 02:37:36;;;;;;;19.30;11.63;;;;;;;11.08;70.65;99268.81;4973375;28;97159;-83
2022/11/04 02:40:10;;;;;;;14.77;10.27;;;;;;;10.91;70.98;99260.09;4970268;28;97955;-81
2022/11/04 02:42:41;;;;;;;19.08;11.27;;;;;;;10.97;70.90;99257.19;4989165;28;98057;-82
2022/11/04 02:45:43;;;;;;;19.20;11.07;;;;;;;11.01;70.58;99256.94;4957354;28;97786;-82
2022/11/04 02:48:11;;;;;;;19.90;11.55;;;;;;;11.08;70.44;99257.44;4936187;28;96899;-82
2022/11/04 02:50:42;;;;;;;19.95;11.77;;;;;;;10.99;71.01;99252.69;4945677;28;100962;-82
2022/11/04 02:53:48;;;;;;;15.63;10.70;;;;;;;10.94;70.71;99237.19;4970378;28;100687;-82
2022/11/04 02:56:15;;;;;;;17.35;10.40;;;;;;;11.07;70.69;99263.63;4972902;28;97362;-82
2022/11/04 02:58:45;;;;;;;19.30;11.50;;;;;;;11.06;70.66;99257.53;4960159;28;98219;-82
2022/11/04 03:01:13;;;;;;;21.25;12.98;;;;;;;11.10;70.75;99258.22;4988605;28;97888;-82
2022/11/04 03:03:43;;;;;;;18.67;10.25;;;;;;;11.05;70.98;99270.75;4957525;28;100833;-83
2022/11/04 03:06:10;;;;;;;20.88;12.23;;;;;;;11.00;70.83;99254.41;4958804;28;96909;-82
2022/11/04 03:08:42;;;;;;;15.38;10.90;;;;;;;10.98;70.81;99251.84;4956581;28;97005;-82
2022/11/04 03:11:14;;;;;;;17.70;10.93;;;;;;;10.98;71.15;99241.34;4936153;28;101181;-82
2022/11/04 03:13:48;;;;;;;;;;;;;;;11.07;70.90;99248.72;4938725;28;101124;-82
2022/11/04 03:16:42;;;;;;;16.42;11.38;;;;;;;11.06;70.91;99247.03;4971433;28;97104;-82
2022/11/04 03:19:32;;;;;;;15.38;10.02;;;;;;;11.19;70.73;99251.63;4958145;28;96919;-82
2022/11/04 03:22:03;;;;;;;17.58;11.73;;;;;;;11.14;70.99;99251.91;4958552;28;101362;-83
2022/11/04 03:24:30;;;;;;;14.95;11.35;;;;;;;11.09;71.00;99241.63;4952791;28;101636;-83
2022/11/04 03:27:31;;;;;;;14.68;10.50;;;;;;;11.09;71.07;99240.78;4972359;28;96871;-82
2022/11/04 03:30:12;;;;;;;16.85;11.23;;;;;;;11.16;71.26;99249.16;4956994;28;96822;-82
2022/11/04 03:32:54;;;;;;;14.63;11.07;;;;;;;11.18;71.19;99256.03;4971422;28;101836;-82
2022/11/04 03:35:20;;;;;;;21.00;11.10;;;;;;;11.24;70.73;99245.22;4955590;28;101358;-82
2022/11/04 03:37:46;;;;;;;16.48;11.40;;;;;;;11.22;70.73;99240.97;4971214;28;97101;-81
2022/11/04 03:40:13;;;;;;;17.15;11.80;;;;;;;11.26;70.96;99245.97;4938360;28;97927;-82
2022/11/04 03:42:44;;;;;;;20.40;12.30;;;;;;;11.24;70.75;99236.47;4927511;28;101849;-82
2022/11/04 03:45:10;;;;;;;18.52;11.88;;;;;;;11.22;71.12;99244.44;4935889;28;101256;-82
2022/11/04 03:47:35;;;;;;;18.42;11.85;;;;;;;11.28;71.02;99240.63;4932806;28;96966;-82
2022/11/04 03:50:10;;;;;;;24.52;12.50;;;;;;;11.24;70.90;99231.22;4948516;28;97075;-82
2022/11/04 03:52:35;;;;;;;18.83;12.25;;;;;;;11.25;70.72;99222.41;4935109;28;101009;-82
2022/11/04 03:55:02;;;;;;;19.67;11.75;;;;;;;11.15;71.27;99226.47;4952048;28;100970;-83
2022/11/04 03:57:35;;;;;;;18.70;11.43;;;;;;;11.15;71.36;99229.09;4952012;28;96822;-83
2022/11/04 04:00:06;;;;;;;18.67;12.77;;;;;;;11.19;71.04;99231.47;4952141;28;96925;-82
2022/11/04 04:03:06;;;;;;;19.75;12.27;;;;;;;11.15;71.39;99234.34;4918366;28;101155;-82
2022/11/04 04:05:39;;;;;;;20.02;12.73;;;;;;;11.19;71.22;99217.50;4952113;28;97716;-82
2022/11/04 04:08:04;;;;;;;20.05;11.73;;;;;;;11.16;71.38;99223.75;4951773;28;97104;-82
2022/11/04 04:10:56;;;;;;;19.50;12.40;;;;;;;11.08;71.57;99212.81;4951572;28;97549;-83
2022/11/04 04:13:36;;;;;;;18.52;12.75;;;;;;;11.08;71.57;99221.56;4948424;28;101280;-82
2022/11/04 04:16:26;;;;;;;23.15;12.95;;;;;;;11.09;72.16;99222.41;4951701;28;101108;-82
2022/11/04 04:18:54;;;;;;;22.33;12.25;;;;;;;10.93;72.08;99211.00;4935260;28;97389;-83
2022/11/04 04:21:28;;;;;;;20.60;12.35;;;;;;;10.90;72.57;99214.63;4933570;28;96836;-82
2022/11/04 04:29:25;;;;;;;22.35;12.57;;;;;;;10.93;72.45;99205.75;4967652;28;97052;-81
2022/11/04 04:31:56;;;;;;;22.33;13.63;;;;;;;10.86;72.88;99200.81;4934582;28;97605;-82
2022/11/04 04:34:27;;;;;;;20.35;12.80;;;;;;;10.84;73.25;99212.34;4935896;28;101565;-82
2022/11/04 04:36:56;;;;;;;22.60;13.30;;;;;;;10.84;73.12;99207.94;4953679;28;101660;-82
2022/11/04 04:45:02;;;;;;;21.88;13.95;;;;;;;10.88;73.42;99208.63;4949329;28;101184;-82
2022/11/04 04:47:38;;;;;;;22.27;13.73;;;;;;;10.85;73.96;99207.03;4934389;28;101384;-82
2022/11/04 04:50:04;;;;;;;23.10;13.35;;;;;;;10.85;73.64;99199.13;4953427;28;96810;-83
2022/11/04 04:52:37;;;;;;;22.63;13.90;;;;;;;10.77;73.69;99179.47;4946287;28;97158;-83
2022/11/04 04:55:03;;;;;;;20.05;11.85;;;;;;;10.90;73.61;99196.25;4944582;28;101617;-83
2022/11/04 04:57:28;;;;;;;23.27;15.95;;;;;;;10.87;73.47;99171.00;4947785;28;100758;-82
2022/11/04 04:59:54;;;;;;;24.67;15.05;;;;;;;10.96;73.55;99198.56;4927487;28;96849;-82
2022/11/04 05:02:19;;;;;;;26.55;15.23;;;;;;;10.91;73.74;99190.09;4937837;28;96933;-82
2022/11/04 05:04:45;;;;;;;22.42;14.75;;;;;;;10.98;73.79;99201.94;4955633;28;97490;-82
2022/11/04 05:07:10;;;;;;;24.40;14.63;;;;;;;10.95;73.87;99196.88;4921527;28;101204;-82
2022/11/04 05:09:36;;;;;;;22.48;14.68;;;;;;;11.00;73.51;99194.00;4933424;28;96847;-82
2022/11/04 05:12:02;;;;;;;26.00;14.23;;;;;;;10.87;73.94;99178.03;4929753;28;97066;-82
2022/11/04 05:14:28;;;;;;;25.40;14.75;;;;;;;10.93;74.10;99182.13;4928547;28;101390;-82
2022/11/04 05:16:54;;;;;;;25.23;16.58;;;;;;;10.99;73.92;99185.25;4956190;28;100973;-82
2022/11/04 05:19:19;;;;;;;24.33;15.63;;;;;;;10.92;74.26;99169.94;4948597;28;97689;-82
2022/11/04 05:21:45;;;;;;;28.17;15.43;;;;;;;10.95;74.42;99180.28;4948673;28;97635;-82
2022/11/04 05:24:10;;;;;;;23.70;14.82;;;;;;;10.92;74.25;99162.91;4932086;28;101933;-82
2022/11/04 05:26:36;;;;;;;26.95;15.73;;;;;;;11.05;73.57;99169.19;4948761;28;97949;-82
2022/11/04 05:29:01;;;;;;;28.13;15.90;;;;;;;10.91;73.85;99155.97;4934436;28;96986;-83
2022/11/04 05:31:29;;;;;;;22.45;15.27;;;;;;;11.00;73.81;99173.00;4963670;28;97879;-82
2022/11/04 05:33:55;;;;;;;26.38;15.73;;;;;;;11.00;74.38;99165.97;4963467;28;97387;-82
2022/11/04 05:36:20;;;;;;;22.95;14.70;;;;;;;10.98;74.18;99167.81;4950657;28;101746;-83
2022/11/04 05:38:49;;;;;;;28.98;16.65;;;;;;;11.06;74.13;99172.66;4941613;28;97604;-83
2022/11/04 05:41:24;;;;;;;24.45;15.65;;;;;;;11.06;74.07;99164.78;4949754;28;96982;-82
2022/11/04 05:44:02;;;;;;;28.25;16.52;;;;;;;11.06;74.36;99164.78;4958781;28;101496;-82
2022/11/04 05:46:28;;;;;;;25.10;16.30;;;;;;;11.01;74.49;99162.41;4942508;28;97968;-83
2022/11/04 05:48:54;;;;;;;22.38;14.73;;;;;;;10.99;74.17;99159.00;4933393;28;96735;-82
2022/11/04 05:51:22;;;;;;;23.65;16.38;;;;;;;10.96;74.46;99148.66;4933209;28;96829;-82
2022/11/04 05:53:48;;;;;;;23.17;16.08;;;;;;;10.97;74.52;99155.63;4945342;28;97443;-83
2022/11/04 05:56:14;;;;;;;28.98;17.45;;;;;;;11.04;74.68;99154.34;4946378;28;101042;-82
2022/11/04 05:58:39;;;;;;;29.33;17.42;;;;;;;10.87;74.92;99142.13;4950897;28;96913;-83
2022/11/04 06:01:30;;;;;;;25.42;16.77;;;;;;;10.99;74.83;99166.03;4949068;28;97046;-82
2022/11/04 06:03:57;;;;;;;26.25;16.98;;;;;;;10.99;75.12;99166.03;4964520;28;101011;-82
2022/11/04 06:06:24;;;;;;;27.77;18.48;;;;;;;10.99;74.58;99155.53;4933103;28;101236;-82
2022/11/04 06:08:50;;;;;;;26.08;16.80;;;;;;;11.03;74.55;99160.53;4949662;28;97327;-82
2022/11/04 06:11:15;;;;;;;34.40;19.70;;;;;;;11.19;74.56;99171.06;4948610;28;96890;-83
2022/11/04 06:13:41;;;;;;;31.52;18.30;;;;;;;11.05;74.31;99147.31;4967221;28;101046;-83
2022/11/04 06:16:07;;;;;;;27.13;18.60;;;;;;;11.13;74.28;99174.00;4952396;28;98062;-82
2022/11/04 06:18:32;;;;;;;30.70;18.90;;;;;;;11.13;74.33;99170.53;4933664;28;96777;-82
2022/11/04 06:21:13;;;;;;;28.50;17.30;;;;;;;11.10;74.01;99154.00;4949864;28;96858;-83
2022/11/04 06:23:42;;;;;;;28.83;18.15;;;;;;;11.25;74.05;99177.75;4917161;28;101453;-83
2022/11/04 06:26:09;;;;;;;34.80;19.45;;;;;;;11.18;74.02;99158.84;4940397;28;97593;-83
2022/11/04 06:28:34;;;;;;;29.45;19.65;;;;;;;11.30;73.68;99178.34;4957035;28;96972;-84
2022/11/04 06:31:02;;;;;;;27.50;17.98;;;;;;;11.33;73.94;99181.66;4952763;28;96893;-83
2022/11/04 06:33:29;;;;;;;30.63;20.15;;;;;;;11.35;73.18;99184.22;4949853;28;98144;-82
2022/11/04 06:35:59;;;;;;;29.70;20.70;;;;;;;11.41;73.44;99199.63;4933320;28;97650;-82
2022/11/04 06:38:24;;;;;;;33.40;21.10;;;;;;;11.42;73.33;99180.28;4943693;28;98530;-82
2022/11/04 06:40:50;;;;;;;34.33;20.55;;;;;;;11.46;73.25;99173.09;4936519;28;97056;-83
2022/11/04 06:43:16;;;;;;;35.63;22.98;;;;;;;11.36;72.98;99130.72;4963589;28;101246;-83
2022/11/04 06:45:41;;;;;;;32.17;22.15;;;;;;;11.62;72.92;99171.31;4971105;28;101293;-83
2022/11/04 06:48:07;;;;;;;33.85;22.02;;;;;;;11.49;73.33;99165.03;4969301;28;97154;-82
2022/11/04 06:50:33;;;;;;;36.67;22.02;;;;;;;11.57;73.08;99176.81;4957392;28;96867;-82
2022/11/04 06:52:58;;;;;;;32.80;21.55;;;;;;;11.57;73.49;99178.59;4971977;28;101352;-82
2022/11/04 06:55:24;;;;;;;36.17;22.83;;;;;;;11.72;72.73;99174.25;4974451;28;101365;-83
2022/11/04 06:57:50;;;;;;;37.70;23.50;;;;;;;11.78;72.01;99185.28;4950700;28;97335;-83
2022/11/04 07:00:15;;;;;;;34.10;21.77;;;;;;;11.91;72.15;99195.13;4951989;28;97838;-83
2022/11/04 07:02:41;;;;;;;34.17;21.73;;;;;;;11.90;72.25;99196.06;4955027;28;101329;-83
2022/11/04 07:05:07;;;;;;;35.10;22.38;;;;;;;12.05;71.85;99189.91;4963367;28;98177;-82
2022/11/04 07:07:33;;;;;;;31.35;20.70;;;;;;;12.08;71.70;99184.47;4944394;28;97299;-83
2022/11/04 07:09:58;;;;;;;34.38;21.55;;;;;;;12.08;71.92;99176.59;4960823;28;96909;-83
2022/11/04 07:12:24;;;;;;;32.33;21.17;;;;;;;12.18;71.31;99187.41;4964603;28;101723;-82
2022/11/04 07:14:50;;;;;;;33.03;21.40;;;;;;;12.36;70.94;99193.38;4936875;28;101371;-83
2022/11/04 07:17:16;;;;;;;30.75;20.85;;;;;;;12.35;70.13;99189.91;4953002;28;97265;-83
2022/11/04 07:19:41;;;;;;;30.02;20.38;;;;;;;12.29;70.35;99187.63;4951426;28;97981;-82
2022/11/04 07:22:07;;;;;;;29.25;20.13;;;;;;;12.33;70.38;99189.13;4966142;28;101180;-82
2022/11/04 07:24:33;;;;;;;29.15;20.30;;;;;;;12.34;70.04;99201.38;4979205;28;100811;-82
2022/11/04 07:26:59;;;;;;;26.48;18.40;;;;;;;12.52;69.80;99214.38;4971318;28;98090;-82
2022/11/04 07:29:25;;;;;;;26.55;19.27;;;;;;;12.43;69.60;99194.72;4967804;28;97282;-82
2022/11/04 07:31:50;;;;;;;26.90;18.40;;;;;;;12.49;69.82;99198.78;4950376;28;98046;-82
2022/11/04 07:34:16;;;;;;;27.77;19.35;;;;;;;12.41;70.24;99199.22;4968749;28;101514;-81
2022/11/04 07:36:41;;;;;;;29.00;18.45;;;;;;;12.34;70.17;99203.16;4967034;28;97978;-83
2022/11/04 07:39:07;;;;;;;22.92;16.95;;;;;;;12.41;70.34;99209.75;4955713;28;97440;-82
2022/11/04 07:41:33;;;;;;;24.33;17.33;;;;;;;12.50;70.31;99213.59;4956792;28;101677;-87
2022/11/04 07:43:59;;;;;;;27.98;17.67;;;;;;;12.55;69.82;99216.81;4941931;28;101897;-83
2022/11/04 07:46:25;;;;;;;28.42;17.92;;;;;;;12.65;69.59;99217.94;4954433;28;97683;-83
2022/11/04 07:48:51;;;;;;;25.02;18.05;;;;;;;12.59;69.29;99216.53;4953013;28;97788;-83
2022/11/04 07:51:19;;;;;;;28.83;18.77;;;;;;;12.62;70.09;99210.25;4953512;28;101510;-81
2022/11/04 07:53:45;;;;;;;25.60;17.35;;;;;;;12.61;69.91;99206.75;4950023;28;101194;-81
2022/11/04 07:56:12;;;;;;;24.73;18.08;;;;;;;12.63;69.51;99204.06;4956024;28;97254;-81
2022/11/04 07:58:37;;;;;;;25.85;17.70;;;;;;;12.60;69.72;99191.91;4944488;28;97104;-82
2022/11/04 08:01:07;;;;;;;25.92;18.08;;;;;;;12.61;70.09;99222.56;4986358;28;101972;-82
2022/11/04 08:03:34;;;;;;;28.02;18.77;;;;;;;12.51;70.53;99202.13;4939704;28;101151;-81
2022/11/04 08:06:00;;;;;;;25.35;17.70;;;;;;;12.68;70.10;99220.41;4939189;28;96935;-80
2022/11/04 08:08:27;;;;;;;22.88;16.92;;;;;;;12.56;70.73;99219.34;4960380;28;97513;-83
2022/11/04 08:10:55;;;;;;;26.25;18.02;;;;;;;12.55;71.07;99227.34;4938006;28;101477;-82
2022/11/04 08:13:22;;;;;;;28.65;18.00;;;;;;;12.54;70.72;99220.41;4959831;28;100996;-82
2022/11/04 08:15:47;;;;;;;27.63;18.33;;;;;;;12.51;70.55;99215.28;4998009;28;97189;-85
2022/11/04 08:18:13;;;;;;;32.08;19.55;;;;;;;12.37;70.26;99185.41;4993697;28;97269;-90
2022/11/04 08:20:38;;;;;;;27.55;18.17;;;;;;;12.49;70.50;99210.13;4957843;28;98047;-88
2022/11/04 08:23:04;;;;;;;25.42;19.35;;;;;;;12.48;71.02;99211.09;4955727;28;100978;-82
2022/11/04 08:25:30;;;;;;;27.30;18.83;;;;;;;12.38;70.58;99186.25;4936270;28;97444;-82
2022/11/04 08:27:55;;;;;;;29.92;19.90;;;;;;;12.49;71.07;99202.25;4954108;28;100179;-85
2022/11/04 08:30:21;;;;;;;33.08;19.83;;;;;;;12.53;71.21;99206.38;4959604;28;101290;-83
2022/11/04 08:32:46;;;;;;;27.58;20.13;;;;;;;12.58;70.87;99198.22;4970150;28;101329;-82
2022/11/04 08:35:12;;;;;;;31.98;20.60;;;;;;;12.47;70.62;99177.78;4965877;28;97424;-83
2022/11/04 08:37:38;;;;;;;27.08;19.48;;;;;;;12.52;71.07;99199.44;4953606;28;97204;-84
2022/11/04 08:40:04;;;;;;;30.20;18.63;;;;;;;12.49;71.40;99196.97;4947829;28;98085;-82
2022/11/04 08:42:29;;;;;;;28.33;20.02;;;;;;;12.53;71.25;99187.94;4952368;28;101751;-84
2022/11/04 08:44:55;;;;;;;31.95;19.27;;;;;;;12.59;71.22;99182.31;4945548;28;97048;-84
2022/11/04 08:47:21;;;;;;;28.35;18.85;;;;;;;12.34;71.20;99156.63;4942332;28;97173;-84
2022/11/04 08:49:46;;;;;;;32.67;20.15;;;;;;;12.56;71.43;99184.28;4947824;28;102186;-83
2022/11/04 08:52:12;;;;;;;26.38;19.45;;;;;;;12.43;71.88;99166.59;4940819;28;100300;-83
2022/11/04 08:54:38;;;;;;;29.48;19.25;;;;;;;12.46;71.53;99147.16;4969684;28;96939;-84
2022/11/04 08:57:04;;;;;;;27.95;18.88;;;;;;;12.67;71.51;99182.69;4947833;28;97295;-84
2022/11/04 08:59:30;;;;;;;32.17;20.13;;;;;;;12.69;71.37;99178.19;4947430;28;97695;-84
2022/11/04 09:01:56;;;;;;;24.98;18.42;;;;;;;12.78;71.48;99187.31;4950656;28;97369;-83
2022/11/04 09:04:22;;;;;;;27.33;18.27;;;;;;;12.65;71.81;99166.16;4939548;28;97428;-83
2022/11/04 09:06:49;;;;;;;26.00;17.73;;;;;;;12.77;71.71;99177.75;4934137;28;98311;-83
2022/11/04 09:09:16;;;;;;;27.75;17.85;;;;;;;12.89;71.15;99184.88;4936725;28;101381;-82
2022/11/04 09:11:43;;;;;;;31.52;18.60;;;;;;;13.03;70.91;99178.78;4933720;28;101428;-82
2022/11/04 09:14:09;;;;;;;27.75;18.52;;;;;;;13.16;70.38;99178.00;4934558;28;97912;-83
2022/11/04 09:16:37;;;;;;;24.98;17.08;;;;;;;13.26;69.93;99169.44;4950422;28;98145;-83
2022/11/04 09:19:03;;;;;;;26.85;17.63;;;;;;;13.55;69.02;99164.94;4928356;28;101352;-83
2022/11/04 09:21:29;;;;;;;24.20;17.73;;;;;;;13.49;68.61;99169.75;4949519;28;96805;-82
2022/11/04 09:23:55;;;;;;;25.20;16.45;;;;;;;13.60;69.34;99162.00;4926180;28;97059;-82
2022/11/04 09:26:22;;;;;;;22.10;16.17;;;;;;;13.68;68.96;99172.91;4933544;28;98082;-83
2022/11/04 09:28:52;;;;;;;23.55;16.45;;;;;;;13.71;68.67;99175.34;4976014;28;101076;-82
2022/11/04 09:31:18;;;;;;;23.13;14.68;;;;;;;13.69;69.16;99169.31;4926425;28;100804;-84
2022/11/04 09:33:44;;;;;;;26.02;16.15;;;;;;;13.74;68.29;99174.31;4949463;28;96798;-83
2022/11/04 09:36:10;;;;;;;28.67;16.15;;;;;;;13.72;68.74;99166.47;4917830;28;96798;-86
2022/11/04 09:38:37;;;;;;;21.77;14.35;;;;;;;13.79;68.58;99167.78;4932826;28;102053;-85
2022/11/04 09:41:18;;;;;;;19.80;13.30;;;;;;;13.80;67.85;99158.91;4931848;28;98407;-84
2022/11/04 09:43:57;;;;;;;21.53;12.57;;;;;;;13.84;67.65;99164.81;4949156;28;97295;-84
2022/11/04 09:46:22;;;;;;;21.85;12.75;;;;;;;13.85;67.67;99170.97;4942988;28;97509;-84
2022/11/04 09:48:51;;;;;;;18.92;12.00;;;;;;;13.92;67.86;99181.00;4942170;28;97148;-85
2022/11/04 09:51:19;;;;;;;18.92;11.52;;;;;;;14.00;67.53;99175.22;4933460;28;101114;-85
2022/11/04 09:53:53;;;;;;;17.45;13.02;;;;;;;13.99;67.45;99173.53;4920423;28;97267;-85
2022/11/04 09:56:22;;;;;;;17.42;13.00;;;;;;;14.04;67.51;99176.72;4977261;28;97085;-86
2022/11/04 09:58:49;;;;;;;19.38;12.15;;;;;;;13.96;67.15;99163.16;4920361;28;101683;-84
2022/11/04 10:01:31;;;;;;;19.23;12.57;;;;;;;14.04;66.51;99176.72;4951846;28;101570;-84
2022/11/04 10:04:19;;;;;;;21.52;12.98;;;;;;;14.01;66.81;99172.47;4918631;28;96872;-84
2022/11/04 10:07:03;;;;;;;15.82;11.48;;;;;;;14.00;66.35;99167.31;4972018;28;97082;-86
2022/11/04 10:09:57;;;;;;;16.75;12.55;;;;;;;14.01;66.80;99163.72;4954491;28;102275;-86
2022/11/04 10:12:44;;;;;;;18.33;11.82;;;;;;;14.06;66.65;99160.78;4952822;28;98440;-84
2022/11/04 10:15:26;;;;;;;18.63;11.30;;;;;;;14.08;66.45;99145.69;4953142;28;98382;-83
2022/11/04 10:18:13;;;;;;;22.58;12.88;;;;;;;14.12;66.32;99157.75;4953227;28;97255;-83
2022/11/04 10:20:49;;;;;;;18.02;12.05;;;;;;;14.10;66.30;99162.25;4928582;28;100085;-83
2022/11/04 10:23:44;;;;;;;18.77;12.75;;;;;;;14.12;66.22;99158.56;4946468;28;98008;-83
2022/11/04 10:26:32;;;;;;;18.85;12.02;;;;;;;14.14;66.69;99153.22;4948802;28;97604;-83
2022/11/04 10:29:03;;;;;;;20.23;13.35;;;;;;;14.10;66.32;99151.72;4935933;28;96797;-84
2022/11/04 10:31:28;;;;;;;20.35;13.15;;;;;;;14.12;66.56;99155.09;4953358;28;100899;-84
2022/11/04 10:33:58;;;;;;;18.55;12.30;;;;;;;14.12;66.30;99155.94;4936083;28;101089;-83
2022/11/04 10:36:24;;;;;;;20.35;13.10;;;;;;;14.12;66.16;99160.38;4954425;28;96992;-83
2022/11/04 10:38:53;;;;;;;18.73;12.50;;;;;;;14.00;66.63;99140.94;4949536;28;97357;-84
2022/11/04 10:41:27;;;;;;;23.20;12.40;;;;;;;14.13;66.18;99173.44;4921284;28;101332;-83
2022/11/04 10:44:05;;;;;;;24.95;13.45;;;;;;;14.12;66.49;99166.50;4953303;28;101758;-83
2022/11/04 10:46:48;;;;;;;22.30;13.02;;;;;;;14.13;66.20;99165.53;4970948;28;96837;-84
2022/11/04 10:49:29;;;;;;;25.90;12.73;;;;;;;14.08;66.59;99158.88;4951939;28;96836;-83
2022/11/04 10:51:55;;;;;;;19.75;13.88;;;;;;;13.95;66.23;99129.84;4950979;28;98008;-83
2022/11/04 10:54:21;;;;;;;16.08;12.88;;;;;;;14.12;66.41;99161.22;4969639;28;98451;-83
2022/11/04 10:56:50;;;;;;;21.17;13.38;;;;;;;14.16;65.99;99157.41;4944520;28;96802;-83
2022/11/04 10:59:30;;;;;;;19.83;13.10;;;;;;;14.18;66.25;99152.03;4945699;28;96911;-83
2022/11/04 11:02:03;;;;;;;19.73;12.98;;;;;;;14.15;66.38;99136.41;4936313;28;101592;-83
2022/11/04 11:04:33;;;;;;;21.63;12.98;;;;;;;14.10;65.92;99139.34;4949551;28;98369;-84
2022/11/04 11:07:01;;;;;;;19.52;12.77;;;;;;;13.99;66.03;99113.72;4965202;28;97338;-83
2022/11/04 11:09:29;;;;;;;19.77;13.10;;;;;;;14.19;66.04;99148.44;4968478;28;97336;-85
2022/11/04 11:12:12;;;;;;;22.10;13.68;;;;;;;14.10;65.70;99128.78;4932454;28;97807;-85
2022/11/04 11:14:39;;;;;;;19.55;12.98;;;;;;;14.20;65.46;99127.25;4962577;28;97960;-85
2022/11/04 11:17:43;;;;;;;19.15;12.10;;;;;;;14.43;65.79;99130.94;4933472;28;97281;-85
2022/11/04 11:20:13;;;;;;;17.70;13.65;;;;;;;14.55;65.38;99123.19;4936562;28;97110;-84
2022/11/04 11:22:44;;;;;;;20.17;13.48;;;;;;;14.64;65.04;99126.00;4949357;28;100466;-84
2022/11/04 11:25:32;;;;;;;16.95;12.25;;;;;;;14.74;64.99;99115.63;4948015;28;98244;-85
2022/11/04 11:28:11;;;;;;;18.92;12.77;;;;;;;14.81;64.69;99124.84;4933572;28;97248;-84
2022/11/04 11:30:43;;;;;;;23.17;13.63;;;;;;;14.91;64.14;99109.16;4951601;28;96970;-84
2022/11/04 11:33:16;;;;;;;;;;;;;;;14.89;64.40;99111.06;4930693;28;101684;-84
2022/11/04 11:35:52;;;;;;;18.00;11.90;;;;;;;14.78;64.57;99111.84;4944977;28;100446;-84
2022/11/04 11:38:21;;;;;;;17.45;12.10;;;;;;;14.83;64.29;99130.84;4935242;28;97234;-84
2022/11/04 11:40:47;;;;;;;16.17;12.65;;;;;;;14.81;64.60;99118.72;4934192;28;97338;-84
2022/11/04 11:43:28;;;;;;;18.38;12.27;;;;;;;14.89;64.39;99126.91;4939508;28;101643;-85
2022/11/04 11:45:56;;;;;;;21.00;13.57;;;;;;;14.89;64.28;99122.50;4964243;28;97952;-84
2022/11/04 11:48:38;;;;;;;18.85;12.30;;;;;;;14.85;64.16;99122.81;4966967;28;96819;-84
2022/11/04 11:51:05;;;;;;;17.63;12.43;;;;;;;14.84;64.34;99126.41;4965302;28;97244;-84
2022/11/04 11:53:33;;;;;;;19.85;12.18;;;;;;;14.80;64.13;99120.47;4932115;28;101252;-84
2022/11/04 11:56:08;;;;;;;16.88;11.70;;;;;;;14.85;64.40;99121.00;4933585;28;101383;-84